Time;durP1;ratioP1;P1;durP2;ratioP2;P2;SDS_P1;SDS_P2;PMS_P1;PMS_P2;Temp;Humidity;BMP_temperature;BMP_pressure;BME280_temperature;BME280_humidity;BME280_pressure;Samples;Min_cycle;Max_cycle;Signal;HPM_P1;HPM_P2
2022/04/30 00:01:19;;;;;;;13.93;8.73;;;6.20;99.90;;;;;;5051095;28;20120;-76
2022/04/30 00:03:45;;;;;;;;;;;6.10;99.90;;;;;;5045711;28;20059;-76
2022/04/30 00:06:11;;;;;;;16.55;9.00;;;6.10;99.90;;;;;;5032855;28;19921;-76
2022/04/30 00:08:38;;;;;;;15.53;8.73;;;6.00;99.90;;;;;;5054863;28;20040;-76
2022/04/30 00:11:04;;;;;;;12.82;9.10;;;6.10;99.90;;;;;;5043346;28;20073;-77
2022/04/30 00:13:30;;;;;;;14.45;8.52;;;6.10;99.90;;;;;;5044008;28;20512;-77
2022/04/30 00:15:56;;;;;;;15.75;8.75;;;6.10;99.90;;;;;;5045811;28;20080;-77
2022/04/30 00:18:22;;;;;;;13.25;8.57;;;6.20;99.90;;;;;;5043181;28;20149;-76
2022/04/30 00:20:48;;;;;;;10.98;8.40;;;6.20;99.90;;;;;;5053728;28;20396;-76
2022/04/30 00:23:20;;;;;;;12.20;7.97;;;6.30;99.90;;;;;;5054443;28;20044;-76
2022/04/30 00:25:54;;;;;;;12.48;8.35;;;6.50;99.90;;;;;;5052794;28;20037;-76
2022/04/30 00:28:22;;;;;;;12.48;8.23;;;6.30;99.90;;;;;;5053366;28;20079;-76
2022/04/30 00:30:48;;;;;;;15.38;8.55;;;6.40;99.90;;;;;;5050385;28;20064;-76
2022/04/30 00:33:14;;;;;;;15.07;8.88;;;6.30;99.90;;;;;;5052497;28;20358;-76
2022/04/30 00:35:41;;;;;;;14.30;8.68;;;6.40;99.90;;;;;;5050853;28;20121;-77
2022/04/30 00:38:07;;;;;;;13.98;8.88;;;6.30;99.90;;;;;;5045725;28;20036;-77
2022/04/30 00:40:33;;;;;;;12.63;7.60;;;6.40;99.90;;;;;;5043027;28;20433;-77
2022/04/30 00:42:59;;;;;;;12.90;8.73;;;6.60;99.90;;;;;;5050999;28;20060;-76
2022/04/30 00:45:25;;;;;;;13.25;8.20;;;6.30;99.90;;;;;;5046913;28;20029;-76
2022/04/30 00:47:51;;;;;;;13.70;7.75;;;6.30;99.90;;;;;;5053736;28;20045;-76
2022/04/30 00:50:20;;;;;;;14.77;8.18;;;6.30;99.90;;;;;;5048787;28;20040;-76
2022/04/30 00:52:52;;;;;;;15.80;7.72;;;6.30;99.90;;;;;;5040895;28;20477;-77
2022/04/30 00:55:22;;;;;;;16.52;8.38;;;6.30;99.90;;;;;;5053945;28;20048;-77
2022/04/30 00:57:53;;;;;;;11.85;7.60;;;6.30;99.90;;;;;;5052432;28;20167;-77
2022/04/30 01:00:18;;;;;;;14.27;7.50;;;6.30;99.90;;;;;;5052313;28;20042;-76
2022/04/30 01:02:44;;;;;;;9.88;7.07;;;6.30;99.90;;;;;;5055803;28;20469;-76
2022/04/30 01:05:10;;;;;;;11.98;7.32;;;6.30;99.90;;;;;;5051788;28;20543;-77
2022/04/30 01:07:36;;;;;;;11.23;7.25;;;6.30;99.90;;;;;;5052567;28;20477;-76
2022/04/30 01:10:03;;;;;;;12.10;7.47;;;6.50;99.90;;;;;;5045381;28;20076;-75
2022/04/30 01:12:30;;;;;;;11.63;6.80;;;6.10;99.90;;;;;;5038855;28;20059;-77
2022/04/30 01:14:56;;;;;;;15.52;7.72;;;6.10;99.90;;;;;;5045602;28;20102;-76
2022/04/30 01:17:22;;;;;;;;;;;6.10;99.90;;;;;;5036403;28;20040;-76
2022/04/30 01:19:49;;;;;;;11.13;7.03;;;6.00;99.90;;;;;;5066195;28;20348;-76
2022/04/30 01:22:14;;;;;;;;;;;6.00;99.90;;;;;;5035963;28;20036;-77
2022/04/30 01:24:40;;;;;;;9.70;6.85;;;6.00;99.90;;;;;;5051420;28;20446;-76
2022/04/30 01:27:07;;;;;;;10.82;6.78;;;5.90;99.90;;;;;;5051346;28;20138;-76
2022/04/30 01:29:36;;;;;;;9.13;6.47;;;5.90;99.90;;;;;;5052941;28;20039;-76
2022/04/30 01:37:36;;;;;;;9.85;6.60;;;5.90;99.90;;;;;;5052892;28;20047;-76
2022/04/30 01:40:10;;;;;;;11.75;7.15;;;5.90;99.90;;;;;;5052825;28;20487;-77
2022/04/30 01:42:40;;;;;;;8.60;6.78;;;5.90;99.90;;;;;;5049719;28;20036;-76
2022/04/30 01:45:06;;;;;;;10.63;6.40;;;5.90;99.90;;;;;;5042436;28;20132;-76
2022/04/30 01:47:35;;;;;;;12.32;6.75;;;6.00;99.90;;;;;;5041837;28;20040;-76
2022/04/30 01:50:01;;;;;;;10.05;6.65;;;6.00;99.90;;;;;;5046707;28;20075;-76
2022/04/30 01:52:27;;;;;;;11.32;5.93;;;6.00;99.90;;;;;;5048814;28;20488;-76
2022/04/30 01:54:53;;;;;;;9.80;6.28;;;5.90;99.90;;;;;;5040423;28;20079;-77
2022/04/30 01:57:26;;;;;;;9.77;6.30;;;5.90;99.90;;;;;;5039750;28;20045;-76
2022/04/30 02:00:03;;;;;;;12.68;6.78;;;5.90;99.90;;;;;;5046631;28;20047;-76
2022/04/30 02:02:37;;;;;;;10.73;6.70;;;6.00;99.90;;;;;;5050116;28;20047;-77
2022/04/30 02:05:07;;;;;;;10.30;6.28;;;6.00;99.90;;;;;;5037654;28;20400;-77
2022/04/30 02:07:39;;;;;;;11.15;6.68;;;6.00;99.90;;;;;;5051644;28;20032;-77
2022/04/30 02:10:07;;;;;;;14.35;7.07;;;6.00;99.90;;;;;;5064178;28;20045;-76
2022/04/30 02:12:34;;;;;;;9.15;7.07;;;6.00;99.90;;;;;;5050647;28;20053;-76
2022/04/30 02:15:00;;;;;;;10.65;6.40;;;6.00;99.90;;;;;;5069295;28;20472;-77
2022/04/30 02:17:28;;;;;;;12.35;6.60;;;6.00;99.90;;;;;;5046565;28;20070;-76
2022/04/30 02:22:47;;;;;;;10.02;7.10;;;6.20;99.90;;;;;;5042120;28;20547;-76
2022/04/30 02:25:15;;;;;;;9.55;6.35;;;5.90;99.90;;;;;;5046439;28;20064;-76
2022/04/30 02:27:43;;;;;;;11.82;6.80;;;5.80;99.90;;;;;;5042945;28;20535;-76
2022/04/30 02:30:14;;;;;;;12.55;6.93;;;5.80;99.90;;;;;;5060791;28;20396;-77
2022/04/30 02:32:51;;;;;;;10.55;6.93;;;5.80;99.90;;;;;;5040771;28;20055;-77
2022/04/30 02:35:19;;;;;;;8.52;6.35;;;5.80;99.90;;;;;;5029828;28;20044;-77
2022/04/30 02:37:52;;;;;;;9.70;6.90;;;5.80;99.90;;;;;;5047387;28;20497;-76
2022/04/30 02:40:19;;;;;;;10.48;6.70;;;5.90;99.90;;;;;;5036777;28;20064;-76
2022/04/30 02:42:46;;;;;;;12.57;7.38;;;5.80;99.90;;;;;;5052720;28;20082;-76
2022/04/30 02:45:13;;;;;;;10.63;6.65;;;5.80;99.90;;;;;;5043535;28;20417;-76
2022/04/30 02:47:40;;;;;;;9.85;6.82;;;5.80;99.90;;;;;;5042931;28;20043;-77
2022/04/30 02:50:07;;;;;;;14.50;6.82;;;5.80;99.90;;;;;;5041243;28;20118;-76
2022/04/30 02:52:33;;;;;;;13.07;7.03;;;5.80;99.90;;;;;;5037971;28;20396;-75
2022/04/30 02:54:59;;;;;;;11.05;6.63;;;5.80;99.90;;;;;;5039001;28;20043;-76
2022/04/30 02:57:25;;;;;;;11.23;7.00;;;6.10;99.90;;;;;;5037126;28;20048;-77
2022/04/30 02:59:53;;;;;;;11.13;7.28;;;5.80;99.90;;;;;;5039473;28;20045;-78
2022/04/30 03:02:20;;;;;;;11.65;7.07;;;5.80;99.90;;;;;;5038719;28;20162;-77
2022/04/30 03:04:51;;;;;;;10.60;7.55;;;5.80;99.90;;;;;;5042439;28;20128;-77
2022/04/30 03:07:21;;;;;;;11.23;7.22;;;5.80;99.90;;;;;;5044618;28;20507;-77
2022/04/30 03:09:47;;;;;;;11.20;7.30;;;5.80;99.90;;;;;;5042324;28;20040;-77
2022/04/30 03:12:14;;;;;;;8.83;6.87;;;5.80;99.90;;;;;;5049988;28;20144;-77
2022/04/30 03:14:41;;;;;;;11.48;6.82;;;5.70;99.90;;;;;;5051661;28;20340;-77
2022/04/30 03:22:36;;;;;;;13.32;8.52;;;5.80;99.90;;;;;;5052366;28;20186;-76
2022/04/30 03:25:02;;;;;;;10.50;7.10;;;5.80;99.90;;;;;;5042278;28;20124;-76
2022/04/30 03:27:28;;;;;;;11.93;7.28;;;5.80;99.90;;;;;;5041982;28;20059;-77
2022/04/30 03:29:54;;;;;;;9.23;6.10;;;5.80;99.90;;;;;;5037871;28;20049;-76
2022/04/30 03:32:20;;;;;;;10.83;6.63;;;5.70;99.90;;;;;;5030216;28;20037;-76
2022/04/30 03:34:47;;;;;;;8.60;5.75;;;5.60;99.90;;;;;;5041086;28;20790;-76
2022/04/30 03:37:13;;;;;;;9.55;6.10;;;5.50;99.90;;;;;;5039496;28;20064;-76
2022/04/30 03:39:39;;;;;;;;;;;5.60;99.90;;;;;;5041777;28;20043;-75
2022/04/30 03:42:05;;;;;;;11.35;6.82;;;5.70;99.90;;;;;;5043252;28;20296;-76
2022/04/30 03:44:31;;;;;;;9.57;6.53;;;5.50;99.90;;;;;;5034541;28;20385;-77
2022/04/30 03:46:57;;;;;;;8.48;6.47;;;5.60;99.90;;;;;;5038341;28;20033;-77
2022/04/30 03:49:23;;;;;;;11.57;7.17;;;5.60;99.90;;;;;;5040295;28;20040;-77
2022/04/30 03:51:49;;;;;;;9.13;6.85;;;5.60;99.90;;;;;;5038380;28;20045;-76
2022/04/30 03:54:15;;;;;;;13.55;7.00;;;5.60;99.90;;;;;;5031240;28;20115;-76
2022/04/30 03:56:40;;;;;;;8.73;6.30;;;5.60;99.90;;;;;;5037641;28;20052;-76
2022/04/30 03:59:06;;;;;;;10.20;7.63;;;5.60;99.90;;;;;;5044293;28;20080;-77
2022/04/30 04:01:32;;;;;;;14.57;8.03;;;5.60;99.90;;;;;;5035705;28;20048;-77
2022/04/30 04:04:00;;;;;;;;;;;5.60;99.90;;;;;;5042179;28;20284;-76
2022/04/30 04:06:26;;;;;;;12.25;7.60;;;5.60;99.90;;;;;;5041613;28;19929;-76
2022/04/30 04:08:52;;;;;;;12.23;7.15;;;5.60;99.90;;;;;;5036516;28;20593;-76
2022/04/30 04:11:19;;;;;;;11.07;7.45;;;5.70;99.90;;;;;;5036592;28;20076;-76
2022/04/30 04:19:13;;;;;;;9.43;7.15;;;5.70;99.90;;;;;;5039829;28;20052;-76
2022/04/30 04:21:39;;;;;;;12.07;8.05;;;5.80;99.90;;;;;;5030186;28;20045;-76
2022/04/30 04:26:50;;;;;;;10.13;7.35;;;5.70;99.90;;;;;;5040780;28;20068;-76
2022/04/30 04:29:16;;;;;;;11.73;7.93;;;5.70;99.90;;;;;;5028758;28;20049;-76
2022/04/30 04:31:44;;;;;;;12.63;8.00;;;5.80;99.90;;;;;;5038182;28;20041;-77
2022/04/30 04:34:10;;;;;;;11.68;7.68;;;5.90;99.90;;;;;;5044481;28;20044;-77
2022/04/30 04:36:36;;;;;;;;;;;5.80;99.90;;;;;;5040311;28;20071;-77
2022/04/30 04:39:12;;;;;;;10.82;7.82;;;5.90;99.90;;;;;;5039173;28;20062;-76
2022/04/30 04:41:39;;;;;;;16.13;8.18;;;5.90;99.90;;;;;;5038560;28;20415;-77
2022/04/30 04:44:05;;;;;;;11.90;7.70;;;5.90;99.90;;;;;;5043343;28;20045;-77
2022/04/30 04:46:32;;;;;;;11.32;7.65;;;6.00;99.90;;;;;;5040596;28;20055;-76
2022/04/30 04:48:58;;;;;;;10.90;7.63;;;6.00;99.90;;;;;;5038391;28;20046;-76
2022/04/30 04:51:23;;;;;;;11.93;7.57;;;6.00;99.90;;;;;;5040744;28;20033;-76
2022/04/30 04:53:49;;;;;;;12.93;7.60;;;6.10;99.90;;;;;;5034124;28;20121;-77
2022/04/30 04:56:16;;;;;;;9.75;7.60;;;6.20;99.90;;;;;;5052141;28;20600;-77
2022/04/30 04:58:42;;;;;;;12.17;7.80;;;6.20;99.90;;;;;;5041729;28;20133;-77
2022/04/30 05:01:08;;;;;;;10.80;8.47;;;6.20;99.90;;;;;;5034710;28;20379;-77
2022/04/30 05:03:33;;;;;;;10.30;7.65;;;6.30;99.90;;;;;;5053738;28;20110;-76
2022/04/30 05:05:59;;;;;;;11.53;7.77;;;6.30;99.90;;;;;;5044176;28;20080;-77
2022/04/30 05:08:24;;;;;;;12.07;7.60;;;6.40;99.90;;;;;;5045337;28;20280;-77
2022/04/30 05:10:50;;;;;;;10.27;7.63;;;6.50;99.90;;;;;;5039299;28;20139;-77
2022/04/30 05:13:16;;;;;;;14.00;8.57;;;6.40;99.90;;;;;;5032959;28;20029;-77
2022/04/30 05:15:42;;;;;;;14.53;8.27;;;6.40;99.90;;;;;;5036305;28;20053;-77
2022/04/30 05:18:08;;;;;;;10.55;7.57;;;6.40;99.90;;;;;;5041414;28;20053;-77
2022/04/30 05:20:34;;;;;;;12.35;7.88;;;6.50;99.90;;;;;;5043982;28;20389;-77
2022/04/30 05:23:00;;;;;;;10.68;7.53;;;6.50;99.90;;;;;;5047580;28;20048;-77
2022/04/30 05:25:26;;;;;;;16.38;8.30;;;6.60;99.90;;;;;;5041770;28;20055;-77
2022/04/30 05:27:52;;;;;;;10.77;7.90;;;6.60;99.90;;;;;;5047487;28;20052;-77
2022/04/30 05:30:18;;;;;;;13.48;7.47;;;6.70;99.90;;;;;;5050466;28;20291;-76
2022/04/30 05:32:44;;;;;;;14.48;7.90;;;6.70;99.90;;;;;;5049930;28;20047;-77
2022/04/30 05:35:10;;;;;;;12.43;8.15;;;6.80;99.90;;;;;;5050141;28;20040;-75
2022/04/30 05:37:36;;;;;;;12.25;8.27;;;7.10;99.90;;;;;;5050674;28;20041;-76
2022/04/30 05:40:02;;;;;;;13.43;8.18;;;7.00;99.90;;;;;;5034103;28;20041;-76
2022/04/30 05:42:28;;;;;;;10.82;7.40;;;7.00;99.90;;;;;;5051033;28;20511;-76
2022/04/30 05:44:53;;;;;;;9.27;7.47;;;7.10;99.90;;;;;;5033850;28;20048;-76
2022/04/30 05:47:19;;;;;;;11.47;8.03;;;7.20;99.90;;;;;;5051096;28;20033;-76
2022/04/30 05:49:45;;;;;;;11.98;8.40;;;7.30;99.90;;;;;;5050431;28;20032;-76
2022/04/30 05:52:13;;;;;;;12.88;7.72;;;7.30;99.90;;;;;;5051155;28;20044;-76
2022/04/30 05:54:39;;;;;;;11.15;7.78;;;7.40;99.90;;;;;;5050375;28;20037;-76
2022/04/30 05:57:05;;;;;;;12.23;8.30;;;7.50;99.90;;;;;;5050906;28;20047;-76
2022/04/30 05:59:30;;;;;;;14.07;7.97;;;7.50;99.90;;;;;;5034076;28;20477;-77
2022/04/30 06:01:56;;;;;;;10.60;6.90;;;7.60;99.90;;;;;;5034091;28;20114;-77
2022/04/30 06:04:22;;;;;;;12.30;7.28;;;7.70;99.90;;;;;;5050093;28;20041;-77
2022/04/30 06:06:47;;;;;;;10.03;7.33;;;7.80;99.90;;;;;;5050105;28;20472;-76
2022/04/30 06:09:14;;;;;;;10.30;7.25;;;7.90;99.90;;;;;;5050747;28;20068;-77
2022/04/30 06:11:40;;;;;;;11.48;8.25;;;7.90;99.90;;;;;;5028996;28;20111;-77
2022/04/30 06:14:06;;;;;;;11.02;7.72;;;8.00;99.90;;;;;;5040132;28;20036;-77
2022/04/30 06:16:32;;;;;;;10.40;7.50;;;8.00;99.90;;;;;;5049314;28;20037;-76
2022/04/30 06:18:57;;;;;;;9.83;7.30;;;8.10;99.90;;;;;;5050476;28;20091;-76
2022/04/30 06:21:23;;;;;;;13.03;7.87;;;8.10;99.90;;;;;;5050345;28;20341;-76
2022/04/30 06:23:50;;;;;;;9.55;7.18;;;8.20;99.90;;;;;;5033639;28;20523;-76
2022/04/30 06:26:16;;;;;;;12.57;7.03;;;8.20;99.90;;;;;;5050080;28;20055;-76
2022/04/30 06:28:41;;;;;;;9.50;6.95;;;8.30;99.90;;;;;;5016871;28;20123;-76
2022/04/30 06:31:07;;;;;;;9.27;7.10;;;8.40;99.90;;;;;;5033624;28;20033;-78
2022/04/30 06:33:33;;;;;;;10.70;6.88;;;8.50;99.90;;;;;;5034350;28;20412;-76
2022/04/30 06:35:59;;;;;;;12.73;6.73;;;8.50;99.90;;;;;;5050304;28;20072;-76
2022/04/30 06:38:25;;;;;;;12.57;7.65;;;8.60;99.90;;;;;;5050131;28;20283;-76
2022/04/30 06:40:51;;;;;;;10.95;6.95;;;8.70;99.90;;;;;;5049803;28;20071;-77
2022/04/30 06:43:17;;;;;;;11.88;6.50;;;8.90;99.90;;;;;;5033513;28;20386;-77
2022/04/30 06:45:42;;;;;;;10.60;6.97;;;9.00;99.90;;;;;;5049392;28;20049;-76
2022/04/30 06:48:08;;;;;;;12.82;7.40;;;9.00;99.90;;;;;;5050179;28;20044;-78
2022/04/30 06:50:34;;;;;;;16.33;6.80;;;9.10;99.90;;;;;;5050137;28;20082;-76
2022/04/30 06:58:50;;;;;;;9.15;6.80;;;9.40;99.90;;;;;;5024077;28;20137;-76
2022/04/30 07:04:05;;;;;;;11.23;6.85;;;9.60;99.90;;;;;;5034589;28;20141;-76
2022/04/30 07:06:32;;;;;;;12.50;6.88;;;9.60;99.90;;;;;;5035924;28;20387;-76
2022/04/30 07:08:58;;;;;;;11.93;6.85;;;9.70;99.90;;;;;;5041623;28;20049;-77
2022/04/30 07:11:25;;;;;;;11.80;6.60;;;9.70;99.90;;;;;;5041905;28;20444;-77
2022/04/30 07:13:51;;;;;;;13.73;7.00;;;9.80;99.90;;;;;;5036548;28;20108;-77
2022/04/30 07:16:17;;;;;;;9.13;7.03;;;9.80;99.90;;;;;;5031148;28;20133;-76
2022/04/30 07:18:43;;;;;;;8.35;6.78;;;9.90;99.90;;;;;;5049257;28;20515;-77
2022/04/30 07:21:08;;;;;;;11.03;6.53;;;9.90;99.90;;;;;;5048950;28;20040;-76
2022/04/30 07:23:34;;;;;;;10.67;6.20;;;10.00;99.90;;;;;;5049823;28;20283;-76
2022/04/30 07:26:00;;;;;;;10.77;6.78;;;10.00;99.90;;;;;;5049014;28;20056;-76
2022/04/30 07:28:30;;;;;;;11.23;6.75;;;10.10;99.90;;;;;;5036144;28;20045;-76
2022/04/30 07:30:55;;;;;;;13.43;6.38;;;10.10;99.90;;;;;;5051641;28;20547;-77
2022/04/30 07:33:21;;;;;;;13.60;5.97;;;10.10;99.90;;;;;;5052801;28;20032;-78
2022/04/30 07:35:48;;;;;;;11.32;6.55;;;10.10;99.90;;;;;;5050220;28;20461;-78
2022/04/30 07:38:14;;;;;;;13.02;7.40;;;10.10;99.90;;;;;;5053103;28;20426;-78
2022/04/30 07:40:39;;;;;;;11.37;7.67;;;10.10;99.90;;;;;;5051069;28;20059;-77
2022/04/30 07:43:05;;;;;;;12.68;7.35;;;10.10;99.90;;;;;;5052484;28;20044;-77
2022/04/30 07:45:31;;;;;;;11.52;7.13;;;10.20;99.90;;;;;;5051798;28;20365;-77
2022/04/30 07:47:57;;;;;;;12.68;7.60;;;10.20;99.90;;;;;;5048915;28;20178;-77
2022/04/30 07:50:25;;;;;;;14.20;8.07;;;10.20;99.90;;;;;;5050624;28;20036;-77
2022/04/30 07:52:51;;;;;;;12.48;7.47;;;10.20;99.90;;;;;;5052020;28;20055;-76
2022/04/30 07:55:16;;;;;;;14.38;8.20;;;10.30;99.90;;;;;;5052374;28;20045;-76
2022/04/30 07:57:42;;;;;;;12.52;8.07;;;10.30;99.90;;;;;;5035966;28;20120;-76
2022/04/30 08:00:08;;;;;;;15.55;8.60;;;10.30;99.90;;;;;;5051097;28;20048;-76
2022/04/30 08:02:34;;;;;;;12.50;7.38;;;10.30;99.90;;;;;;5052404;28;20040;-77
2022/04/30 08:05:03;;;;;;;12.25;7.00;;;10.30;99.90;;;;;;5049567;28;20477;-77
2022/04/30 08:07:29;;;;;;;10.73;6.30;;;10.30;99.90;;;;;;5048101;28;20090;-77
2022/04/30 08:09:55;;;;;;;10.02;6.43;;;10.30;99.90;;;;;;5050940;28;20033;-77
2022/04/30 08:12:21;;;;;;;13.20;7.37;;;10.40;99.90;;;;;;5051006;28;20034;-77
2022/04/30 08:14:48;;;;;;;8.93;6.13;;;10.40;99.90;;;;;;5052049;28;20048;-76
2022/04/30 08:17:13;;;;;;;13.55;6.53;;;10.50;99.90;;;;;;5051355;28;20048;-75
2022/04/30 08:19:42;;;;;;;12.05;6.93;;;10.60;99.90;;;;;;5052232;28;20033;-77
2022/04/30 08:22:08;;;;;;;11.68;5.95;;;10.60;99.90;;;;;;5050788;28;20132;-76
2022/04/30 08:24:33;;;;;;;11.07;5.57;;;10.60;99.90;;;;;;5051170;28;20231;-76
2022/04/30 08:26:59;;;;;;;8.60;5.35;;;10.60;99.90;;;;;;5051372;28;20297;-77
2022/04/30 08:29:28;;;;;;;9.32;5.97;;;10.70;99.90;;;;;;5055297;28;20119;-77
2022/04/30 08:31:55;;;;;;;9.68;5.72;;;10.80;99.90;;;;;;5052364;28;20041;-77
2022/04/30 08:34:20;;;;;;;10.35;5.80;;;10.90;99.90;;;;;;5039696;28;20484;-76
2022/04/30 08:36:46;;;;;;;10.52;5.70;;;10.90;99.90;;;;;;5054808;28;20044;-77
2022/04/30 08:39:12;;;;;;;9.53;5.47;;;11.10;99.90;;;;;;5036102;28;20539;-77
2022/04/30 08:41:41;;;;;;;8.30;5.47;;;11.00;99.90;;;;;;5053410;28;20919;-77
2022/04/30 08:44:08;;;;;;;9.90;5.47;;;11.00;99.90;;;;;;5054253;28;20042;-76
2022/04/30 08:46:33;;;;;;;8.82;5.28;;;11.00;99.90;;;;;;5054626;28;20052;-77
2022/04/30 08:48:59;;;;;;;9.37;4.87;;;11.00;99.90;;;;;;5054944;28;20098;-76
2022/04/30 08:51:25;;;;;;;14.60;5.75;;;11.00;99.90;;;;;;5054697;28;20063;-77
2022/04/30 08:53:51;;;;;;;11.93;5.60;;;11.00;99.90;;;;;;5052680;28;20092;-77
2022/04/30 08:56:17;;;;;;;12.07;4.97;;;11.10;99.90;;;;;;5053150;28;20290;-76
2022/04/30 08:58:42;;;;;;;11.63;6.15;;;11.00;99.90;;;;;;5055587;28;20770;-76
2022/04/30 09:01:10;;;;;;;10.27;5.53;;;11.10;99.90;;;;;;5055327;28;20040;-77
2022/04/30 09:03:37;;;;;;;10.20;5.38;;;11.20;99.90;;;;;;5052245;28;20080;-77
2022/04/30 09:06:04;;;;;;;11.57;5.10;;;11.40;99.90;;;;;;5054446;28;20052;-76
2022/04/30 09:08:30;;;;;;;9.70;4.80;;;11.60;99.90;;;;;;5054227;28;20041;-76
2022/04/30 09:11:07;;;;;;;10.15;5.40;;;11.70;99.90;;;;;;5055309;28;20040;-77
2022/04/30 09:13:43;;;;;;;13.68;4.88;;;11.80;99.90;;;;;;5053823;28;20079;-77
2022/04/30 09:16:20;;;;;;;7.03;4.63;;;11.90;99.90;;;;;;5049504;28;20040;-77
2022/04/30 09:18:46;;;;;;;8.35;4.97;;;12.10;99.90;;;;;;5061979;28;20040;-77
2022/04/30 09:21:14;;;;;;;7.80;5.05;;;12.20;99.90;;;;;;5053460;28;20040;-77
2022/04/30 09:23:40;;;;;;;10.93;5.28;;;12.20;99.90;;;;;;5054627;28;20053;-77
2022/04/30 09:26:06;;;;;;;9.18;4.57;;;12.20;99.90;;;;;;5054739;28;20385;-76
2022/04/30 09:28:36;;;;;;;8.43;3.90;;;12.20;99.90;;;;;;5053526;28;20064;-77
2022/04/30 09:31:11;;;;;;;9.07;4.45;;;12.40;99.90;;;;;;5054289;28;20041;-76
2022/04/30 09:33:50;;;;;;;6.47;4.05;;;12.20;99.90;;;;;;5053597;28;20515;-77
2022/04/30 09:39:17;;;;;;;7.90;4.93;;;12.70;99.90;;;;;;5048908;28;20040;-77
2022/04/30 09:41:43;;;;;;;6.65;4.03;;;12.80;99.90;;;;;;5051959;28;20463;-77
2022/04/30 09:44:12;;;;;;;9.15;4.53;;;12.90;99.90;;;;;;5064956;28;20036;-77
2022/04/30 09:46:40;;;;;;;7.32;4.00;;;12.90;99.90;;;;;;5038363;28;20036;-77
2022/04/30 09:54:37;;;;;;;8.98;4.30;;;12.90;99.90;;;;;;5068151;28;20432;-77
2022/04/30 09:57:05;;;;;;;6.95;4.10;;;12.70;99.90;;;;;;5052230;28;20040;-77
2022/04/30 09:59:40;;;;;;;6.47;4.28;;;12.40;99.90;;;;;;5051176;28;20048;-76
2022/04/30 10:02:07;;;;;;;8.13;5.03;;;12.30;99.90;;;;;;5051862;28;20032;-76
2022/04/30 10:04:35;;;;;;;8.35;5.32;;;12.00;99.90;;;;;;5053361;28;20072;-76
2022/04/30 10:07:03;;;;;;;9.60;5.07;;;11.90;99.90;;;;;;5026729;28;20044;-77
2022/04/30 10:09:48;;;;;;;9.93;5.07;;;11.70;99.90;;;;;;5040782;28;20044;-76
2022/04/30 10:12:26;;;;;;;7.95;5.15;;;11.90;99.90;;;;;;5041434;28;20064;-77
2022/04/30 10:15:20;;;;;;;8.60;5.28;;;11.70;99.90;;;;;;5043086;28;20044;-77
2022/04/30 10:17:48;;;;;;;6.13;4.75;;;11.40;99.90;;;;;;5044618;28;20055;-77
2022/04/30 10:20:28;;;;;;;8.32;4.63;;;11.40;99.90;;;;;;5044939;28;20047;-76
2022/04/30 10:22:56;;;;;;;8.32;4.82;;;11.30;99.90;;;;;;5044458;28;20075;-76
2022/04/30 10:25:42;;;;;;;6.63;4.28;;;11.10;99.90;;;;;;5043678;28;20032;-76
2022/04/30 10:28:10;;;;;;;6.00;3.67;;;11.20;99.90;;;;;;5041180;28;20057;-77
2022/04/30 10:30:38;;;;;;;7.78;3.83;;;11.10;99.90;;;;;;5023858;28;20110;-78
2022/04/30 10:33:06;;;;;;;8.43;4.07;;;11.00;99.90;;;;;;5044769;28;20041;-77
2022/04/30 10:35:43;;;;;;;7.00;3.92;;;11.10;99.90;;;;;;5043022;28;20049;-77
2022/04/30 10:38:10;;;;;;;7.65;4.10;;;11.00;99.90;;;;;;5037690;28;20040;-77
2022/04/30 10:40:39;;;;;;;;;;;11.00;99.90;;;;;;5042758;28;20043;-75
2022/04/30 10:43:37;;;;;;;8.65;4.30;;;11.00;99.90;;;;;;5035471;28;19923;-78
2022/04/30 10:46:25;;;;;;;8.95;4.47;;;11.00;99.90;;;;;;5039821;28;20492;-76
2022/04/30 10:48:51;;;;;;;7.28;4.55;;;11.10;99.90;;;;;;5029343;28;20038;-77
2022/04/30 10:51:40;;;;;;;7.07;4.20;;;11.00;99.90;;;;;;5039868;28;20044;-76
2022/04/30 10:54:10;;;;;;;6.60;3.80;;;11.10;99.90;;;;;;5034625;28;20068;-76
2022/04/30 10:56:38;;;;;;;11.00;4.32;;;11.10;99.90;;;;;;5037590;28;20037;-77
2022/04/30 10:59:04;;;;;;;7.43;4.30;;;11.20;99.90;;;;;;5035508;28;20064;-77
2022/04/30 11:01:30;;;;;;;8.75;4.38;;;11.20;99.90;;;;;;5039860;28;20037;-77
2022/04/30 11:03:55;;;;;;;6.75;4.22;;;11.30;99.90;;;;;;5039145;28;20041;-77
2022/04/30 11:06:25;;;;;;;6.78;4.30;;;11.20;99.90;;;;;;5037184;28;20098;-77
2022/04/30 11:09:05;;;;;;;5.95;4.13;;;11.10;99.90;;;;;;5042247;28;20041;-77
2022/04/30 11:11:31;;;;;;;6.78;4.70;;;11.20;99.90;;;;;;5040157;28;20075;-76
2022/04/30 11:14:08;;;;;;;8.40;4.00;;;11.20;99.90;;;;;;5042490;28;20045;-77
2022/04/30 11:16:46;;;;;;;;;;;11.20;99.90;;;;;;5022118;28;20045;-76
2022/04/30 11:19:14;;;;;;;7.25;3.60;;;11.20;99.90;;;;;;5023097;28;20380;-76
2022/04/30 11:21:47;;;;;;;8.00;4.40;;;11.30;99.90;;;;;;5039413;28;20085;-77
2022/04/30 11:24:25;;;;;;;8.73;4.22;;;11.30;99.90;;;;;;5039040;28;20132;-78
2022/04/30 11:26:59;;;;;;;8.15;4.15;;;11.30;99.90;;;;;;5031978;28;20084;-77
2022/04/30 11:29:25;;;;;;;6.90;4.18;;;11.30;99.90;;;;;;5029815;28;20045;-77
2022/04/30 11:31:52;;;;;;;7.30;4.18;;;11.30;99.90;;;;;;5037590;28;20534;-78
2022/04/30 11:34:18;;;;;;;5.85;4.03;;;11.40;99.90;;;;;;5044074;28;20120;-76
2022/04/30 11:36:50;;;;;;;8.07;4.40;;;11.50;99.90;;;;;;5039315;28;20072;-77
2022/04/30 11:39:17;;;;;;;7.10;5.07;;;11.50;99.90;;;;;;5036635;28;20434;-76
2022/04/30 11:41:50;;;;;;;9.52;5.43;;;11.50;99.90;;;;;;5034607;28;20033;-78
2022/04/30 11:44:19;;;;;;;6.35;4.55;;;11.40;99.90;;;;;;5041483;28;20052;-78
2022/04/30 11:46:46;;;;;;;7.75;4.63;;;11.30;99.90;;;;;;5037555;28;20076;-78
2022/04/30 11:49:14;;;;;;;6.68;4.03;;;11.30;99.90;;;;;;5023720;28;20037;-79
2022/04/30 11:51:42;;;;;;;7.53;3.88;;;11.30;99.90;;;;;;5039747;28;20075;-77
2022/04/30 11:54:10;;;;;;;7.80;3.95;;;11.30;99.90;;;;;;5036866;28;20029;-77
2022/04/30 11:56:37;;;;;;;8.52;4.72;;;11.30;99.90;;;;;;5043588;28;21169;-77
2022/04/30 11:59:05;;;;;;;6.63;4.15;;;11.30;99.90;;;;;;5036727;28;20041;-78
2022/04/30 12:01:38;;;;;;;6.40;4.47;;;11.40;99.90;;;;;;5038590;28;20048;-78
2022/04/30 12:04:11;;;;;;;6.43;4.20;;;11.40;99.90;;;;;;5035922;28;20094;-78
2022/04/30 12:06:37;;;;;;;10.18;4.60;;;11.40;99.90;;;;;;5028653;28;20047;-78
2022/04/30 12:09:21;;;;;;;;;;;11.30;99.90;;;;;;5024985;28;20041;-79
2022/04/30 12:11:50;;;;;;;6.95;3.92;;;11.40;99.90;;;;;;5018506;28;19917;-79
2022/04/30 12:14:17;;;;;;;9.40;4.60;;;11.50;99.90;;;;;;5035857;28;20604;-78
2022/04/30 12:16:44;;;;;;;7.30;4.20;;;11.60;99.90;;;;;;5030155;28;20049;-78
2022/04/30 12:25:14;;;;;;;8.35;3.80;;;11.80;99.90;;;;;;5038353;28;20155;-78
2022/04/30 12:27:59;;;;;;;4.97;3.70;;;11.80;99.90;;;;;;5031246;28;20115;-78
2022/04/30 12:30:25;;;;;;;5.95;3.10;;;11.80;99.90;;;;;;5029754;28;20120;-77
2022/04/30 12:32:53;;;;;;;5.97;3.17;;;11.90;99.90;;;;;;5027290;28;20490;-77
2022/04/30 12:35:26;;;;;;;4.90;3.10;;;11.80;99.90;;;;;;5030455;28;20045;-77
2022/04/30 12:38:02;;;;;;;5.80;3.40;;;11.90;99.90;;;;;;5026048;28;20037;-78
2022/04/30 12:40:27;;;;;;;4.18;3.17;;;11.90;99.90;;;;;;5029099;28;20396;-78
2022/04/30 12:42:53;;;;;;;5.78;3.70;;;12.10;99.90;;;;;;5039265;28;20045;-78
2022/04/30 12:45:19;;;;;;;8.30;3.70;;;12.10;99.90;;;;;;5026868;28;20041;-77
2022/04/30 12:47:44;;;;;;;6.85;3.30;;;12.10;99.90;;;;;;5040039;28;20048;-78
2022/04/30 12:50:10;;;;;;;7.10;3.92;;;12.10;99.90;;;;;;5030702;28;20041;-77
2022/04/30 12:52:36;;;;;;;6.10;3.88;;;12.20;99.90;;;;;;5031192;28;20365;-78
2022/04/30 12:55:03;;;;;;;6.18;3.88;;;12.20;99.90;;;;;;5029720;28;20083;-77
2022/04/30 12:57:29;;;;;;;9.25;4.75;;;12.30;99.90;;;;;;5028767;28;20438;-77
2022/04/30 12:59:54;;;;;;;7.87;4.60;;;12.30;99.90;;;;;;5008625;28;20041;-77
2022/04/30 13:02:23;;;;;;;8.27;4.37;;;12.40;99.90;;;;;;5023240;28;20295;-77
2022/04/30 13:04:52;;;;;;;7.38;4.75;;;12.40;99.90;;;;;;5030383;28;20052;-76
2022/04/30 13:07:18;;;;;;;8.13;4.25;;;12.50;99.90;;;;;;5035764;28;20040;-75
2022/04/30 13:15:12;;;;;;;6.03;4.18;;;12.40;99.90;;;;;;5039298;28;20067;-77
2022/04/30 13:17:38;;;;;;;5.20;4.27;;;12.40;99.90;;;;;;5034656;28;20141;-78
2022/04/30 13:20:05;;;;;;;6.32;4.32;;;12.40;99.90;;;;;;5037809;28;20300;-78
2022/04/30 13:22:32;;;;;;;9.43;4.47;;;12.40;99.90;;;;;;5041396;28;20045;-76
2022/04/30 13:24:58;;;;;;;7.00;4.65;;;12.40;99.90;;;;;;5037407;28;20413;-78
2022/04/30 13:27:24;;;;;;;7.13;4.00;;;12.40;99.90;;;;;;5045569;28;20057;-77
2022/04/30 13:29:51;;;;;;;7.68;4.40;;;12.40;99.90;;;;;;5036907;28;20056;-76
2022/04/30 13:32:16;;;;;;;;;;;12.30;99.90;;;;;;5039162;28;20041;-77
2022/04/30 13:34:42;;;;;;;7.93;3.88;;;12.40;99.90;;;;;;5036483;28;19924;-77
2022/04/30 13:37:09;;;;;;;8.55;4.32;;;12.30;99.90;;;;;;5047830;28;20460;-76
2022/04/30 13:39:35;;;;;;;5.70;3.95;;;12.20;99.90;;;;;;5043708;28;20041;-76
2022/04/30 13:42:00;;;;;;;5.85;3.53;;;12.10;99.90;;;;;;5039619;28;20064;-78
2022/04/30 13:44:26;;;;;;;5.53;3.75;;;12.10;99.90;;;;;;5041336;28;20033;-79